sensor_id;sensor_type;location;lat;lon;timestamp;P1;durP1;ratioP1;P2;durP2;ratioP2
38615;SDS011;24370;51.986;4.666;2023-04-24T00:00:00;5.07;;;2.10;;
38615;SDS011;24370;51.986;4.666;2023-04-24T00:02:26;3.10;;;2.20;;
38615;SDS011;24370;51.986;4.666;2023-04-24T00:04:51;5.10;;;2.47;;
38615;SDS011;24370;51.986;4.666;2023-04-24T00:07:16;4.80;;;3.20;;
38615;SDS011;24370;51.986;4.666;2023-04-24T00:09:42;7.10;;;3.37;;
38615;SDS011;24370;51.986;4.666;2023-04-24T00:12:09;4.50;;;3.57;;
38615;SDS011;24370;51.986;4.666;2023-04-24T00:14:34;4.80;;;3.27;;
38615;SDS011;24370;51.986;4.666;2023-04-24T00:17:00;4.27;;;3.13;;
38615;SDS011;24370;51.986;4.666;2023-04-24T00:19:27;6.20;;;4.10;;
38615;SDS011;24370;51.986;4.666;2023-04-24T00:21:53;6.70;;;3.30;;
38615;SDS011;24370;51.986;4.666;2023-04-24T00:24:19;7.87;;;3.37;;
38615;SDS011;24370;51.986;4.666;2023-04-24T00:26:45;5.50;;;3.47;;
38615;SDS011;24370;51.986;4.666;2023-04-24T00:29:10;3.87;;;2.50;;
38615;SDS011;24370;51.986;4.666;2023-04-24T00:31:36;7.23;;;2.93;;
38615;SDS011;24370;51.986;4.666;2023-04-24T00:34:01;8.37;;;2.60;;
38615;SDS011;24370;51.986;4.666;2023-04-24T00:36:27;4.43;;;2.73;;
38615;SDS011;24370;51.986;4.666;2023-04-24T00:38:53;3.47;;;2.20;;
38615;SDS011;24370;51.986;4.666;2023-04-24T00:41:19;7.00;;;2.77;;
38615;SDS011;24370;51.986;4.666;2023-04-24T00:43:45;3.33;;;2.53;;
38615;SDS011;24370;51.986;4.666;2023-04-24T00:46:11;7.57;;;2.80;;
38615;SDS011;24370;51.986;4.666;2023-04-24T00:48:38;3.20;;;2.50;;
38615;SDS011;24370;51.986;4.666;2023-04-24T00:51:04;4.20;;;2.30;;
38615;SDS011;24370;51.986;4.666;2023-04-24T00:53:30;4.00;;;2.57;;
38615;SDS011;24370;51.986;4.666;2023-04-24T00:55:55;3.70;;;2.53;;
38615;SDS011;24370;51.986;4.666;2023-04-24T00:58:22;3.97;;;2.90;;
38615;SDS011;24370;51.986;4.666;2023-04-24T01:00:48;4.63;;;3.30;;
38615;SDS011;24370;51.986;4.666;2023-04-24T01:03:18;3.83;;;3.20;;
38615;SDS011;24370;51.986;4.666;2023-04-24T01:05:45;4.00;;;2.87;;
38615;SDS011;24370;51.986;4.666;2023-04-24T01:08:11;5.47;;;2.63;;
38615;SDS011;24370;51.986;4.666;2023-04-24T01:10:36;2.53;;;2.33;;
38615;SDS011;24370;51.986;4.666;2023-04-24T01:13:05;3.67;;;2.90;;
38615;SDS011;24370;51.986;4.666;2023-04-24T01:15:32;5.80;;;3.73;;
38615;SDS011;24370;51.986;4.666;2023-04-24T01:17:57;5.23;;;3.67;;
38615;SDS011;24370;51.986;4.666;2023-04-24T01:20:23;7.13;;;4.07;;
38615;SDS011;24370;51.986;4.666;2023-04-24T01:22:51;10.57;;;4.67;;
38615;SDS011;24370;51.986;4.666;2023-04-24T01:25:16;5.53;;;4.30;;
38615;SDS011;24370;51.986;4.666;2023-04-24T01:27:42;6.03;;;3.67;;
38615;SDS011;24370;51.986;4.666;2023-04-24T01:30:08;6.83;;;4.87;;
38615;SDS011;24370;51.986;4.666;2023-04-24T01:32:35;6.90;;;4.80;;
38615;SDS011;24370;51.986;4.666;2023-04-24T01:35:02;9.57;;;5.03;;
38615;SDS011;24370;51.986;4.666;2023-04-24T01:37:27;8.40;;;5.00;;
38615;SDS011;24370;51.986;4.666;2023-04-24T01:39:53;10.13;;;6.07;;
38615;SDS011;24370;51.986;4.666;2023-04-24T01:42:18;9.50;;;6.03;;
38615;SDS011;24370;51.986;4.666;2023-04-24T01:44:44;8.87;;;5.90;;
38615;SDS011;24370;51.986;4.666;2023-04-24T01:47:10;9.57;;;5.97;;
38615;SDS011;24370;51.986;4.666;2023-04-24T01:49:37;7.77;;;5.90;;
38615;SDS011;24370;51.986;4.666;2023-04-24T01:52:04;4.80;;;4.30;;
38615;SDS011;24370;51.986;4.666;2023-04-24T01:54:30;7.33;;;4.90;;
38615;SDS011;24370;51.986;4.666;2023-04-24T01:56:55;7.13;;;4.40;;
38615;SDS011;24370;51.986;4.666;2023-04-24T01:59:21;4.20;;;3.43;;
38615;SDS011;24370;51.986;4.666;2023-04-24T02:01:48;4.77;;;3.50;;
38615;SDS011;24370;51.986;4.666;2023-04-24T02:04:13;5.87;;;3.47;;
38615;SDS011;24370;51.986;4.666;2023-04-24T02:06:40;3.40;;;3.10;;
38615;SDS011;24370;51.986;4.666;2023-04-24T02:09:05;4.97;;;2.30;;
38615;SDS011;24370;51.986;4.666;2023-04-24T02:11:31;2.40;;;2.20;;
38615;SDS011;24370;51.986;4.666;2023-04-24T02:13:56;4.07;;;2.23;;
38615;SDS011;24370;51.986;4.666;2023-04-24T02:16:22;4.97;;;1.70;;
38615;SDS011;24370;51.986;4.666;2023-04-24T02:18:47;2.33;;;1.70;;
38615;SDS011;24370;51.986;4.666;2023-04-24T02:21:12;1.23;;;1.13;;
38615;SDS011;24370;51.986;4.666;2023-04-24T02:23:38;3.20;;;1.30;;
38615;SDS011;24370;51.986;4.666;2023-04-24T02:26:03;3.00;;;1.23;;
38615;SDS011;24370;51.986;4.666;2023-04-24T02:28:32;2.20;;;1.50;;
38615;SDS011;24370;51.986;4.666;2023-04-24T02:30:57;3.80;;;1.20;;
38615;SDS011;24370;51.986;4.666;2023-04-24T02:33:23;1.53;;;1.10;;
38615;SDS011;24370;51.986;4.666;2023-04-24T02:35:48;1.30;;;1.20;;
38615;SDS011;24370;51.986;4.666;2023-04-24T02:38:14;1.80;;;1.50;;
38615;SDS011;24370;51.986;4.666;2023-04-24T02:40:39;1.83;;;1.73;;
38615;SDS011;24370;51.986;4.666;2023-04-24T02:43:05;2.60;;;1.43;;
38615;SDS011;24370;51.986;4.666;2023-04-24T02:45:30;3.70;;;1.90;;
38615;SDS011;24370;51.986;4.666;2023-04-24T02:47:55;3.27;;;1.90;;
38615;SDS011;24370;51.986;4.666;2023-04-24T02:50:21;2.53;;;1.90;;
38615;SDS011;24370;51.986;4.666;2023-04-24T02:52:46;2.17;;;1.90;;
38615;SDS011;24370;51.986;4.666;2023-04-24T02:55:11;4.67;;;2.10;;
38615;SDS011;24370;51.986;4.666;2023-04-24T02:57:37;3.57;;;2.03;;
38615;SDS011;24370;51.986;4.666;2023-04-24T03:00:03;4.40;;;2.10;;
38615;SDS011;24370;51.986;4.666;2023-04-24T03:02:32;4.03;;;2.00;;
38615;SDS011;24370;51.986;4.666;2023-04-24T03:04:57;5.07;;;2.63;;
38615;SDS011;24370;51.986;4.666;2023-04-24T03:07:22;4.27;;;2.50;;
38615;SDS011;24370;51.986;4.666;2023-04-24T03:09:49;3.53;;;2.10;;
38615;SDS011;24370;51.986;4.666;2023-04-24T03:12:14;2.73;;;1.70;;
38615;SDS011;24370;51.986;4.666;2023-04-24T03:14:41;1.40;;;1.30;;
38615;SDS011;24370;51.986;4.666;2023-04-24T03:17:07;1.50;;;0.93;;
38615;SDS011;24370;51.986;4.666;2023-04-24T03:19:32;1.63;;;1.33;;
38615;SDS011;24370;51.986;4.666;2023-04-24T03:21:58;6.73;;;0.90;;
38615;SDS011;24370;51.986;4.666;2023-04-24T03:24:23;3.57;;;0.97;;
38615;SDS011;24370;51.986;4.666;2023-04-24T03:26:48;2.57;;;0.90;;
38615;SDS011;24370;51.986;4.666;2023-04-24T03:29:14;1.97;;;0.67;;
38615;SDS011;24370;51.986;4.666;2023-04-24T03:31:39;1.87;;;0.80;;
38615;SDS011;24370;51.986;4.666;2023-04-24T03:34:05;0.90;;;0.70;;
38615;SDS011;24370;51.986;4.666;2023-04-24T03:36:30;4.37;;;0.90;;
38615;SDS011;24370;51.986;4.666;2023-04-24T03:38:56;1.80;;;0.70;;
38615;SDS011;24370;51.986;4.666;2023-04-24T03:41:21;2.73;;;0.90;;
38615;SDS011;24370;51.986;4.666;2023-04-24T03:43:47;2.63;;;1.00;;
38615;SDS011;24370;51.986;4.666;2023-04-24T03:46:13;3.73;;;1.20;;
38615;SDS011;24370;51.986;4.666;2023-04-24T03:48:38;3.27;;;1.13;;
38615;SDS011;24370;51.986;4.666;2023-04-24T03:51:03;2.93;;;1.10;;
38615;SDS011;24370;51.986;4.666;2023-04-24T03:53:29;3.10;;;1.40;;
38615;SDS011;24370;51.986;4.666;2023-04-24T03:55:54;3.83;;;1.43;;
38615;SDS011;24370;51.986;4.666;2023-04-24T03:58:20;3.40;;;1.53;;
38615;SDS011;24370;51.986;4.666;2023-04-24T04:00:45;4.17;;;1.50;;
38615;SDS011;24370;51.986;4.666;2023-04-24T04:03:13;5.07;;;1.70;;
38615;SDS011;24370;51.986;4.666;2023-04-24T04:05:39;1.33;;;1.23;;
38615;SDS011;24370;51.986;4.666;2023-04-24T04:08:05;4.63;;;1.63;;
38615;SDS011;24370;51.986;4.666;2023-04-24T04:10:30;5.60;;;1.70;;
38615;SDS011;24370;51.986;4.666;2023-04-24T04:12:56;5.90;;;1.77;;
38615;SDS011;24370;51.986;4.666;2023-04-24T04:15:21;4.10;;;1.80;;
38615;SDS011;24370;51.986;4.666;2023-04-24T04:17:46;2.63;;;1.57;;
38615;SDS011;24370;51.986;4.666;2023-04-24T04:20:12;5.67;;;1.83;;
38615;SDS011;24370;51.986;4.666;2023-04-24T04:22:38;3.30;;;1.80;;
38615;SDS011;24370;51.986;4.666;2023-04-24T04:25:04;3.03;;;1.70;;
38615;SDS011;24370;51.986;4.666;2023-04-24T04:27:30;2.37;;;1.80;;
38615;SDS011;24370;51.986;4.666;2023-04-24T04:29:57;7.07;;;1.50;;
38615;SDS011;24370;51.986;4.666;2023-04-24T04:32:26;2.77;;;1.80;;
38615;SDS011;24370;51.986;4.666;2023-04-24T04:34:51;5.67;;;1.77;;
38615;SDS011;24370;51.986;4.666;2023-04-24T04:37:18;3.23;;;1.47;;
38615;SDS011;24370;51.986;4.666;2023-04-24T04:39:43;2.83;;;2.00;;
38615;SDS011;24370;51.986;4.666;2023-04-24T04:42:09;4.20;;;2.10;;
38615;SDS011;24370;51.986;4.666;2023-04-24T04:44:34;2.80;;;1.40;;
38615;SDS011;24370;51.986;4.666;2023-04-24T04:47:01;2.27;;;1.47;;
38615;SDS011;24370;51.986;4.666;2023-04-24T04:49:28;10.30;;;1.67;;
38615;SDS011;24370;51.986;4.666;2023-04-24T04:51:54;3.70;;;1.80;;
38615;SDS011;24370;51.986;4.666;2023-04-24T04:54:19;3.80;;;2.20;;
38615;SDS011;24370;51.986;4.666;2023-04-24T04:56:45;4.93;;;1.63;;
38615;SDS011;24370;51.986;4.666;2023-04-24T04:59:10;1.80;;;1.23;;
38615;SDS011;24370;51.986;4.666;2023-04-24T05:01:36;3.87;;;1.57;;
38615;SDS011;24370;51.986;4.666;2023-04-24T05:04:01;6.40;;;2.63;;
38615;SDS011;24370;51.986;4.666;2023-04-24T05:06:27;3.47;;;2.07;;
38615;SDS011;24370;51.986;4.666;2023-04-24T05:08:52;5.87;;;3.13;;
38615;SDS011;24370;51.986;4.666;2023-04-24T05:11:22;8.57;;;3.00;;
38615;SDS011;24370;51.986;4.666;2023-04-24T05:13:47;10.17;;;3.50;;
38615;SDS011;24370;51.986;4.666;2023-04-24T05:16:13;10.77;;;4.00;;
38615;SDS011;24370;51.986;4.666;2023-04-24T05:18:38;6.10;;;3.23;;
38615;SDS011;24370;51.986;4.666;2023-04-24T05:21:03;12.63;;;3.83;;
38615;SDS011;24370;51.986;4.666;2023-04-24T05:23:29;8.60;;;4.57;;
38615;SDS011;24370;51.986;4.666;2023-04-24T05:25:54;10.80;;;5.90;;
38615;SDS011;24370;51.986;4.666;2023-04-24T05:28:20;14.03;;;7.20;;
38615;SDS011;24370;51.986;4.666;2023-04-24T05:30:46;18.43;;;9.37;;
38615;SDS011;24370;51.986;4.666;2023-04-24T05:33:11;20.07;;;10.30;;
38615;SDS011;24370;51.986;4.666;2023-04-24T05:35:36;22.23;;;10.47;;
38615;SDS011;24370;51.986;4.666;2023-04-24T05:38:02;21.50;;;11.93;;
38615;SDS011;24370;51.986;4.666;2023-04-24T05:40:28;20.43;;;11.30;;
38615;SDS011;24370;51.986;4.666;2023-04-24T05:42:53;27.37;;;12.50;;
38615;SDS011;24370;51.986;4.666;2023-04-24T05:45:18;27.57;;;11.80;;
38615;SDS011;24370;51.986;4.666;2023-04-24T05:47:44;29.47;;;12.53;;
38615;SDS011;24370;51.986;4.666;2023-04-24T05:50:10;26.23;;;11.33;;
38615;SDS011;24370;51.986;4.666;2023-04-24T05:52:35;22.40;;;11.40;;
38615;SDS011;24370;51.986;4.666;2023-04-24T05:55:01;24.37;;;8.23;;
38615;SDS011;24370;51.986;4.666;2023-04-24T05:57:26;15.40;;;8.57;;
38615;SDS011;24370;51.986;4.666;2023-04-24T05:59:52;22.87;;;11.53;;
38615;SDS011;24370;51.986;4.666;2023-04-24T06:02:17;21.33;;;7.20;;
38615;SDS011;24370;51.986;4.666;2023-04-24T06:04:43;16.97;;;9.60;;
38615;SDS011;24370;51.986;4.666;2023-04-24T06:07:10;22.77;;;10.43;;
38615;SDS011;24370;51.986;4.666;2023-04-24T06:09:36;24.17;;;10.63;;
38615;SDS011;24370;51.986;4.666;2023-04-24T06:12:01;29.33;;;10.77;;
38615;SDS011;24370;51.986;4.666;2023-04-24T06:14:27;20.60;;;10.37;;
38615;SDS011;24370;51.986;4.666;2023-04-24T06:16:52;26.07;;;10.17;;
38615;SDS011;24370;51.986;4.666;2023-04-24T06:19:18;26.30;;;8.43;;
38615;SDS011;24370;51.986;4.666;2023-04-24T06:21:43;29.60;;;9.03;;
38615;SDS011;24370;51.986;4.666;2023-04-24T06:24:09;17.47;;;8.30;;
38615;SDS011;24370;51.986;4.666;2023-04-24T06:26:34;21.77;;;6.87;;
38615;SDS011;24370;51.986;4.666;2023-04-24T06:29:00;26.73;;;8.20;;
38615;SDS011;24370;51.986;4.666;2023-04-24T06:31:25;27.93;;;7.70;;
38615;SDS011;24370;51.986;4.666;2023-04-24T06:33:51;30.43;;;8.40;;
38615;SDS011;24370;51.986;4.666;2023-04-24T06:36:16;29.20;;;7.50;;
38615;SDS011;24370;51.986;4.666;2023-04-24T06:38:42;21.17;;;6.40;;
38615;SDS011;24370;51.986;4.666;2023-04-24T06:41:07;24.40;;;7.00;;
38615;SDS011;24370;51.986;4.666;2023-04-24T06:43:32;24.20;;;5.97;;
38615;SDS011;24370;51.986;4.666;2023-04-24T06:45:59;27.37;;;6.53;;
38615;SDS011;24370;51.986;4.666;2023-04-24T06:48:25;23.07;;;6.00;;
38615;SDS011;24370;51.986;4.666;2023-04-24T06:50:51;23.67;;;6.83;;
38615;SDS011;24370;51.986;4.666;2023-04-24T06:53:16;17.40;;;5.67;;
38615;SDS011;24370;51.986;4.666;2023-04-24T06:55:42;21.43;;;6.70;;
38615;SDS011;24370;51.986;4.666;2023-04-24T06:58:09;22.70;;;5.63;;
38615;SDS011;24370;51.986;4.666;2023-04-24T07:00:35;29.40;;;8.33;;
38615;SDS011;24370;51.986;4.666;2023-04-24T07:03:00;18.77;;;7.93;;
38615;SDS011;24370;51.986;4.666;2023-04-24T07:05:25;27.87;;;8.20;;
38615;SDS011;24370;51.986;4.666;2023-04-24T07:07:51;20.07;;;5.53;;
38615;SDS011;24370;51.986;4.666;2023-04-24T07:10:17;19.93;;;4.70;;
38615;SDS011;24370;51.986;4.666;2023-04-24T07:12:43;23.50;;;8.70;;
38615;SDS011;24370;51.986;4.666;2023-04-24T07:15:08;28.63;;;7.17;;
38615;SDS011;24370;51.986;4.666;2023-04-24T07:17:34;29.23;;;7.10;;
38615;SDS011;24370;51.986;4.666;2023-04-24T07:20:00;18.90;;;4.50;;
38615;SDS011;24370;51.986;4.666;2023-04-24T07:22:25;15.03;;;4.00;;
38615;SDS011;24370;51.986;4.666;2023-04-24T07:24:51;20.53;;;4.10;;
38615;SDS011;24370;51.986;4.666;2023-04-24T07:27:16;19.67;;;4.67;;
38615;SDS011;24370;51.986;4.666;2023-04-24T07:29:42;28.27;;;4.80;;
38615;SDS011;24370;51.986;4.666;2023-04-24T07:32:07;24.87;;;5.87;;
38615;SDS011;24370;51.986;4.666;2023-04-24T07:34:33;30.37;;;5.97;;
38615;SDS011;24370;51.986;4.666;2023-04-24T07:36:58;23.03;;;4.00;;
38615;SDS011;24370;51.986;4.666;2023-04-24T07:39:24;25.93;;;5.73;;
38615;SDS011;24370;51.986;4.666;2023-04-24T07:41:49;17.73;;;4.27;;
38615;SDS011;24370;51.986;4.666;2023-04-24T07:44:15;39.40;;;5.27;;
38615;SDS011;24370;51.986;4.666;2023-04-24T07:46:40;17.17;;;3.30;;
38615;SDS011;24370;51.986;4.666;2023-04-24T07:49:06;32.13;;;4.77;;
38615;SDS011;24370;51.986;4.666;2023-04-24T07:51:31;24.17;;;3.43;;
38615;SDS011;24370;51.986;4.666;2023-04-24T07:53:59;18.73;;;3.10;;
38615;SDS011;24370;51.986;4.666;2023-04-24T07:56:25;15.30;;;2.23;;
38615;SDS011;24370;51.986;4.666;2023-04-24T07:58:50;23.97;;;4.63;;
38615;SDS011;24370;51.986;4.666;2023-04-24T08:01:16;9.07;;;1.87;;
38615;SDS011;24370;51.986;4.666;2023-04-24T08:03:41;12.63;;;4.47;;
38615;SDS011;24370;51.986;4.666;2023-04-24T08:06:06;18.87;;;2.90;;
38615;SDS011;24370;51.986;4.666;2023-04-24T08:08:32;24.40;;;2.97;;
38615;SDS011;24370;51.986;4.666;2023-04-24T08:10:57;22.83;;;4.47;;
38615;SDS011;24370;51.986;4.666;2023-04-24T08:13:23;9.00;;;2.70;;
38615;SDS011;24370;51.986;4.666;2023-04-24T08:15:48;12.57;;;2.73;;
38615;SDS011;24370;51.986;4.666;2023-04-24T08:18:14;12.77;;;2.50;;
38615;SDS011;24370;51.986;4.666;2023-04-24T08:20:40;10.97;;;2.33;;
38615;SDS011;24370;51.986;4.666;2023-04-24T08:23:06;16.03;;;3.20;;
38615;SDS011;24370;51.986;4.666;2023-04-24T08:25:31;9.50;;;2.40;;
38615;SDS011;24370;51.986;4.666;2023-04-24T08:27:57;19.67;;;2.73;;
38615;SDS011;24370;51.986;4.666;2023-04-24T08:30:23;7.10;;;2.43;;
38615;SDS011;24370;51.986;4.666;2023-04-24T08:32:48;13.70;;;5.70;;
38615;SDS011;24370;51.986;4.666;2023-04-24T08:35:14;18.07;;;4.83;;
38615;SDS011;24370;51.986;4.666;2023-04-24T08:37:39;14.47;;;5.27;;
38615;SDS011;24370;51.986;4.666;2023-04-24T08:40:27;19.97;;;6.97;;
38615;SDS011;24370;51.986;4.666;2023-04-24T08:42:55;25.33;;;8.67;;
38615;SDS011;24370;51.986;4.666;2023-04-24T08:45:22;8.47;;;4.17;;
38615;SDS011;24370;51.986;4.666;2023-04-24T08:47:49;12.37;;;4.47;;
38615;SDS011;24370;51.986;4.666;2023-04-24T08:50:17;11.97;;;2.73;;
38615;SDS011;24370;51.986;4.666;2023-04-24T08:52:42;8.60;;;3.37;;
38615;SDS011;24370;51.986;4.666;2023-04-24T08:55:08;12.63;;;3.63;;
38615;SDS011;24370;51.986;4.666;2023-04-24T08:57:34;5.47;;;1.90;;
38615;SDS011;24370;51.986;4.666;2023-04-24T09:00:01;11.93;;;2.53;;
38615;SDS011;24370;51.986;4.666;2023-04-24T09:02:28;9.03;;;2.40;;
38615;SDS011;24370;51.986;4.666;2023-04-24T09:04:54;7.90;;;2.10;;
38615;SDS011;24370;51.986;4.666;2023-04-24T09:07:22;6.30;;;2.13;;
38615;SDS011;24370;51.986;4.666;2023-04-24T09:09:50;10.20;;;2.10;;
38615;SDS011;24370;51.986;4.666;2023-04-24T09:12:17;7.47;;;1.80;;
38615;SDS011;24370;51.986;4.666;2023-04-24T09:14:44;10.73;;;1.87;;
38615;SDS011;24370;51.986;4.666;2023-04-24T09:17:10;8.10;;;2.13;;
38615;SDS011;24370;51.986;4.666;2023-04-24T09:19:36;5.00;;;1.20;;
38615;SDS011;24370;51.986;4.666;2023-04-24T09:22:04;5.03;;;1.00;;
38615;SDS011;24370;51.986;4.666;2023-04-24T09:24:31;3.30;;;1.00;;
38615;SDS011;24370;51.986;4.666;2023-04-24T09:26:57;5.03;;;1.23;;
38615;SDS011;24370;51.986;4.666;2023-04-24T09:29:23;6.90;;;1.07;;
38615;SDS011;24370;51.986;4.666;2023-04-24T09:31:50;7.73;;;1.30;;
38615;SDS011;24370;51.986;4.666;2023-04-24T09:34:18;8.27;;;1.63;;
38615;SDS011;24370;51.986;4.666;2023-04-24T09:36:46;2.73;;;1.20;;
38615;SDS011;24370;51.986;4.666;2023-04-24T09:39:13;7.60;;;1.40;;
38615;SDS011;24370;51.986;4.666;2023-04-24T09:44:27;7.63;;;1.50;;
38615;SDS011;24370;51.986;4.666;2023-04-24T09:47:00;7.83;;;1.30;;
38615;SDS011;24370;51.986;4.666;2023-04-24T09:49:29;5.80;;;1.02;;
38615;SDS011;24370;51.986;4.666;2023-04-24T09:52:02;2.73;;;0.77;;
38615;SDS011;24370;51.986;4.666;2023-04-24T09:54:29;10.73;;;1.27;;
38615;SDS011;24370;51.986;4.666;2023-04-24T09:56:54;4.70;;;1.03;;
38615;SDS011;24370;51.986;4.666;2023-04-24T09:59:21;4.97;;;1.00;;
38615;SDS011;24370;51.986;4.666;2023-04-24T10:01:47;6.23;;;1.53;;
38615;SDS011;24370;51.986;4.666;2023-04-24T10:04:21;5.83;;;1.00;;
38615;SDS011;24370;51.986;4.666;2023-04-24T10:06:49;4.67;;;0.97;;
38615;SDS011;24370;51.986;4.666;2023-04-24T10:09:20;8.30;;;1.33;;
38615;SDS011;24370;51.986;4.666;2023-04-24T10:11:49;3.97;;;1.27;;
38615;SDS011;24370;51.986;4.666;2023-04-24T10:14:17;5.00;;;0.80;;
38615;SDS011;24370;51.986;4.666;2023-04-24T10:16:45;4.67;;;0.90;;
38615;SDS011;24370;51.986;4.666;2023-04-24T10:19:12;5.13;;;1.27;;
38615;SDS011;24370;51.986;4.666;2023-04-24T10:21:39;8.40;;;1.40;;
38615;SDS011;24370;51.986;4.666;2023-04-24T10:24:07;9.77;;;3.70;;
38615;SDS011;24370;51.986;4.666;2023-04-24T10:26:34;7.60;;;3.63;;
38615;SDS011;24370;51.986;4.666;2023-04-24T10:29:00;5.20;;;1.60;;
38615;SDS011;24370;51.986;4.666;2023-04-24T10:31:26;7.50;;;3.27;;
38615;SDS011;24370;51.986;4.666;2023-04-24T10:33:55;11.03;;;3.57;;
38615;SDS011;24370;51.986;4.666;2023-04-24T10:36:23;10.13;;;4.67;;
38615;SDS011;24370;51.986;4.666;2023-04-24T10:38:51;7.73;;;2.90;;
38615;SDS011;24370;51.986;4.666;2023-04-24T10:41:19;7.83;;;2.10;;
38615;SDS011;24370;51.986;4.666;2023-04-24T10:43:48;6.93;;;1.77;;
38615;SDS011;24370;51.986;4.666;2023-04-24T10:46:19;5.23;;;1.50;;
38615;SDS011;24370;51.986;4.666;2023-04-24T10:48:53;3.87;;;1.80;;
38615;SDS011;24370;51.986;4.666;2023-04-24T10:51:21;10.37;;;2.00;;
38615;SDS011;24370;51.986;4.666;2023-04-24T10:53:47;8.70;;;1.60;;
38615;SDS011;24370;51.986;4.666;2023-04-24T10:56:15;4.13;;;0.80;;
38615;SDS011;24370;51.986;4.666;2023-04-24T10:58:45;2.03;;;0.93;;
38615;SDS011;24370;51.986;4.666;2023-04-24T11:03:54;6.27;;;1.50;;
38615;SDS011;24370;51.986;4.666;2023-04-24T11:06:33;9.43;;;1.93;;
38615;SDS011;24370;51.986;4.666;2023-04-24T11:09:06;7.17;;;1.47;;
38615;SDS011;24370;51.986;4.666;2023-04-24T11:11:33;7.77;;;1.23;;
38615;SDS011;24370;51.986;4.666;2023-04-24T11:21:38;6.68;;;1.17;;
38615;SDS011;24370;51.986;4.666;2023-04-24T11:24:27;7.17;;;1.20;;
38615;SDS011;24370;51.986;4.666;2023-04-24T11:26:56;9.43;;;1.67;;
38615;SDS011;24370;51.986;4.666;2023-04-24T11:29:37;4.03;;;0.90;;
38615;SDS011;24370;51.986;4.666;2023-04-24T11:35:06;2.67;;;0.80;;
38615;SDS011;24370;51.986;4.666;2023-04-24T11:37:36;4.53;;;0.70;;
38615;SDS011;24370;51.986;4.666;2023-04-24T11:40:04;3.67;;;0.70;;
38615;SDS011;24370;51.986;4.666;2023-04-24T11:42:38;6.50;;;0.70;;
38615;SDS011;24370;51.986;4.666;2023-04-24T11:47:37;9.23;;;1.80;;
38615;SDS011;24370;51.986;4.666;2023-04-24T11:50:07;7.40;;;1.07;;
38615;SDS011;24370;51.986;4.666;2023-04-24T11:52:39;5.13;;;1.27;;
38615;SDS011;24370;51.986;4.666;2023-04-24T11:55:27;6.13;;;1.00;;
38615;SDS011;24370;51.986;4.666;2023-04-24T11:57:53;5.10;;;1.00;;
38615;SDS011;24370;51.986;4.666;2023-04-24T12:00:26;5.43;;;1.00;;
38615;SDS011;24370;51.986;4.666;2023-04-24T12:03:03;5.93;;;1.37;;
38615;SDS011;24370;51.986;4.666;2023-04-24T12:05:32;5.53;;;1.40;;
38615;SDS011;24370;51.986;4.666;2023-04-24T12:07:58;10.57;;;2.00;;
38615;SDS011;24370;51.986;4.666;2023-04-24T12:10:25;5.20;;;1.40;;
38615;SDS011;24370;51.986;4.666;2023-04-24T12:12:52;10.70;;;1.77;;
38615;SDS011;24370;51.986;4.666;2023-04-24T12:15:21;9.17;;;1.67;;
38615;SDS011;24370;51.986;4.666;2023-04-24T12:17:47;4.30;;;1.37;;
38615;SDS011;24370;51.986;4.666;2023-04-24T12:20:15;9.10;;;1.90;;
38615;SDS011;24370;51.986;4.666;2023-04-24T12:25:10;9.23;;;1.70;;
38615;SDS011;24370;51.986;4.666;2023-04-24T12:27:36;14.07;;;1.83;;
38615;SDS011;24370;51.986;4.666;2023-04-24T12:30:03;7.57;;;2.23;;
38615;SDS011;24370;51.986;4.666;2023-04-24T12:32:40;8.83;;;1.70;;
38615;SDS011;24370;51.986;4.666;2023-04-24T12:35:06;10.43;;;1.70;;
38615;SDS011;24370;51.986;4.666;2023-04-24T12:37:32;10.13;;;2.20;;
38615;SDS011;24370;51.986;4.666;2023-04-24T12:40:03;12.60;;;2.00;;
38615;SDS011;24370;51.986;4.666;2023-04-24T12:42:30;15.80;;;2.03;;
38615;SDS011;24370;51.986;4.666;2023-04-24T12:44:57;15.70;;;2.50;;
38615;SDS011;24370;51.986;4.666;2023-04-24T12:47:24;11.73;;;2.77;;
38615;SDS011;24370;51.986;4.666;2023-04-24T12:49:50;15.77;;;3.10;;
38615;SDS011;24370;51.986;4.666;2023-04-24T12:52:17;16.53;;;3.20;;
38615;SDS011;24370;51.986;4.666;2023-04-24T12:54:45;16.97;;;2.80;;
38615;SDS011;24370;51.986;4.666;2023-04-24T12:57:10;15.80;;;2.87;;
38615;SDS011;24370;51.986;4.666;2023-04-24T12:59:36;12.83;;;2.70;;
38615;SDS011;24370;51.986;4.666;2023-04-24T13:02:01;14.67;;;2.83;;
38615;SDS011;24370;51.986;4.666;2023-04-24T13:04:27;13.97;;;2.30;;
38615;SDS011;24370;51.986;4.666;2023-04-24T13:06:53;16.57;;;2.70;;
38615;SDS011;24370;51.986;4.666;2023-04-24T13:09:18;14.83;;;1.97;;
38615;SDS011;24370;51.986;4.666;2023-04-24T13:11:43;10.47;;;2.10;;
38615;SDS011;24370;51.986;4.666;2023-04-24T13:14:09;14.37;;;2.27;;
38615;SDS011;24370;51.986;4.666;2023-04-24T13:16:34;17.73;;;2.67;;
38615;SDS011;24370;51.986;4.666;2023-04-24T13:18:59;13.90;;;3.40;;
38615;SDS011;24370;51.986;4.666;2023-04-24T13:21:25;14.37;;;2.30;;
38615;SDS011;24370;51.986;4.666;2023-04-24T13:23:51;10.30;;;2.43;;
38615;SDS011;24370;51.986;4.666;2023-04-24T13:26:16;13.13;;;2.90;;
38615;SDS011;24370;51.986;4.666;2023-04-24T13:28:42;21.77;;;3.53;;
38615;SDS011;24370;51.986;4.666;2023-04-24T13:31:07;18.90;;;2.63;;
38615;SDS011;24370;51.986;4.666;2023-04-24T13:33:33;11.73;;;3.10;;
38615;SDS011;24370;51.986;4.666;2023-04-24T13:35:58;12.50;;;2.60;;
38615;SDS011;24370;51.986;4.666;2023-04-24T13:38:24;11.53;;;2.70;;
38615;SDS011;24370;51.986;4.666;2023-04-24T13:40:50;13.50;;;3.27;;
38615;SDS011;24370;51.986;4.666;2023-04-24T13:43:15;13.30;;;2.40;;
38615;SDS011;24370;51.986;4.666;2023-04-24T13:45:41;11.83;;;2.47;;
38615;SDS011;24370;51.986;4.666;2023-04-24T13:48:06;9.97;;;2.33;;
38615;SDS011;24370;51.986;4.666;2023-04-24T13:50:33;9.17;;;2.20;;
38615;SDS011;24370;51.986;4.666;2023-04-24T13:52:59;12.83;;;2.70;;
38615;SDS011;24370;51.986;4.666;2023-04-24T13:55:26;9.87;;;2.77;;
38615;SDS011;24370;51.986;4.666;2023-04-24T13:57:51;10.70;;;2.80;;
38615;SDS011;24370;51.986;4.666;2023-04-24T14:00:19;8.80;;;2.73;;
38615;SDS011;24370;51.986;4.666;2023-04-24T14:02:45;12.07;;;2.70;;
38615;SDS011;24370;51.986;4.666;2023-04-24T14:05:12;7.93;;;2.00;;
38615;SDS011;24370;51.986;4.666;2023-04-24T14:07:40;10.90;;;2.70;;
38615;SDS011;24370;51.986;4.666;2023-04-24T14:10:06;8.87;;;2.03;;
38615;SDS011;24370;51.986;4.666;2023-04-24T14:12:32;8.57;;;2.30;;
38615;SDS011;24370;51.986;4.666;2023-04-24T14:14:57;8.30;;;2.43;;
38615;SDS011;24370;51.986;4.666;2023-04-24T14:17:22;12.63;;;2.63;;
38615;SDS011;24370;51.986;4.666;2023-04-24T14:19:48;11.87;;;3.00;;
38615;SDS011;24370;51.986;4.666;2023-04-24T14:22:13;15.70;;;3.23;;
38615;SDS011;24370;51.986;4.666;2023-04-24T14:24:39;15.13;;;3.73;;
38615;SDS011;24370;51.986;4.666;2023-04-24T14:27:04;10.53;;;2.50;;
38615;SDS011;24370;51.986;4.666;2023-04-24T14:29:29;8.87;;;2.87;;
38615;SDS011;24370;51.986;4.666;2023-04-24T14:31:55;9.23;;;2.77;;
38615;SDS011;24370;51.986;4.666;2023-04-24T14:34:20;14.27;;;3.57;;
38615;SDS011;24370;51.986;4.666;2023-04-24T14:36:46;10.33;;;3.40;;
38615;SDS011;24370;51.986;4.666;2023-04-24T14:39:11;12.97;;;3.10;;
38615;SDS011;24370;51.986;4.666;2023-04-24T14:41:37;15.27;;;3.33;;
38615;SDS011;24370;51.986;4.666;2023-04-24T14:44:04;15.97;;;3.20;;
38615;SDS011;24370;51.986;4.666;2023-04-24T14:46:30;13.90;;;3.50;;
38615;SDS011;24370;51.986;4.666;2023-04-24T14:48:56;15.07;;;3.33;;
38615;SDS011;24370;51.986;4.666;2023-04-24T14:51:21;14.70;;;3.20;;
38615;SDS011;24370;51.986;4.666;2023-04-24T14:53:47;15.67;;;3.30;;
38615;SDS011;24370;51.986;4.666;2023-04-24T14:56:12;18.17;;;3.73;;